Dayton/Wright-Patterson AFB, Ohio
Current Conditions -  °F | °C
As of 10:58 PM on Sunday 19 Oct 2014 (Local Time) from KFFO Reporting Station
Clear Clear  
Wind Chill: 42°   Ceiling: Unl
Heat Index: 44°   Visibility: 10mi
Dew Point: 37°   Wind: 5mph
Humidity: 74%   Direction: 200°SSW
Pressure: 30.06"   Gusts: NA
Location:  39.83°N, 84.05°W
Report Text: KFFO 200258Z AUTO 20004KT 10SM CLR 07/03 A3006 RMK AO2 SLP186 T00680025 57015
Loading
Personal Weather Stations






























Interactive Weather Map
Tropical Storm Tracking
New forecast layout! Learn more

10-Day Weather Forecast

Advertisements
Track Severe Weather on mobile